sensor_id;sensor_type;location;lat;lon;timestamp;pressure;altitude;pressure_sealevel;temperature;humidity
7754;BME280;3921;42.266;23.122;2023-06-14T00:01:03;95220.88;;;18.90;94.22
7754;BME280;3921;42.266;23.122;2023-06-14T00:03:31;95330.63;;;19.64;94.07
7754;BME280;3921;42.266;23.122;2023-06-14T00:06:01;94980.69;;;17.34;93.62
7754;BME280;3921;42.266;23.122;2023-06-14T00:08:35;95051.88;;;17.95;94.00
7754;BME280;3921;42.266;23.122;2023-06-14T00:11:02;95015.28;;;17.57;94.13
7754;BME280;3921;42.266;23.122;2023-06-14T00:13:32;95329.91;;;19.60;94.46
7754;BME280;3921;42.266;23.122;2023-06-14T00:16:16;95321.63;;;19.55;94.43
7754;BME280;3921;42.266;23.122;2023-06-14T00:18:44;95299.09;;;19.27;94.65
7754;BME280;3921;42.266;23.122;2023-06-14T00:21:18;95327.34;;;19.62;94.58
7754;BME280;3921;42.266;23.122;2023-06-14T00:23:45;95305.66;;;19.52;94.64
7754;BME280;3921;42.266;23.122;2023-06-14T00:26:20;95318.06;;;19.59;94.62
7754;BME280;3921;42.266;23.122;2023-06-14T00:28:49;95291.56;;;19.24;94.49
7754;BME280;3921;42.266;23.122;2023-06-14T00:31:18;95027.09;;;17.80;93.93
7754;BME280;3921;42.266;23.122;2023-06-14T00:33:51;95239.88;;;19.02;94.25
7754;BME280;3921;42.266;23.122;2023-06-14T00:36:27;95164.19;;;18.66;94.19
7754;BME280;3921;42.266;23.122;2023-06-14T00:38:54;95302.72;;;19.61;94.06
7754;BME280;3921;42.266;23.122;2023-06-14T00:41:24;95297.72;;;19.58;93.95
7754;BME280;3921;42.266;23.122;2023-06-14T00:43:54;95298.50;;;19.60;93.75
7754;BME280;3921;42.266;23.122;2023-06-14T00:46:22;95234.25;;;19.14;93.74
7754;BME280;3921;42.266;23.122;2023-06-14T00:48:50;95133.97;;;18.58;93.66
7754;BME280;3921;42.266;23.122;2023-06-14T00:51:20;95019.84;;;17.91;93.61
7754;BME280;3921;42.266;23.122;2023-06-14T00:53:48;95039.66;;;17.83;93.59
7754;BME280;3921;42.266;23.122;2023-06-14T00:56:21;95284.28;;;19.54;93.97
7754;BME280;3921;42.266;23.122;2023-06-14T00:58:49;95274.19;;;19.53;94.15
7754;BME280;3921;42.266;23.122;2023-06-14T01:01:16;95183.50;;;18.91;94.52
7754;BME280;3921;42.266;23.122;2023-06-14T01:03:52;95131.38;;;18.60;94.45
7754;BME280;3921;42.266;23.122;2023-06-14T01:06:27;95190.09;;;18.76;94.38
7754;BME280;3921;42.266;23.122;2023-06-14T01:09:07;95274.38;;;19.48;94.37
7754;BME280;3921;42.266;23.122;2023-06-14T01:11:47;95183.69;;;18.86;94.17
7754;BME280;3921;42.266;23.122;2023-06-14T01:14:18;94852.53;;;16.80;93.74
7754;BME280;3921;42.266;23.122;2023-06-14T01:16:54;95211.88;;;19.02;93.93
7754;BME280;3921;42.266;23.122;2023-06-14T01:19:25;94959.66;;;17.31;93.85
7754;BME280;3921;42.266;23.122;2023-06-14T01:21:56;95060.75;;;18.05;93.92
7754;BME280;3921;42.266;23.122;2023-06-14T01:24:40;95262.06;;;19.39;94.35
7754;BME280;3921;42.266;23.122;2023-06-14T01:27:15;95258.06;;;19.33;94.31
7754;BME280;3921;42.266;23.122;2023-06-14T01:29:47;95034.28;;;17.91;94.36
7754;BME280;3921;42.266;23.122;2023-06-14T01:32:17;95272.25;;;19.39;94.21
7754;BME280;3921;42.266;23.122;2023-06-14T01:34:44;95186.59;;;18.78;94.42
7754;BME280;3921;42.266;23.122;2023-06-14T01:37:18;94915.84;;;17.05;94.13
7754;BME280;3921;42.266;23.122;2023-06-14T01:39:50;94844.50;;;16.70;93.98
7754;BME280;3921;42.266;23.122;2023-06-14T01:42:22;94850.25;;;16.74;94.12
7754;BME280;3921;42.266;23.122;2023-06-14T01:44:53;95274.72;;;19.41;94.27
7754;BME280;3921;42.266;23.122;2023-06-14T01:47:22;95253.25;;;19.07;94.43
7754;BME280;3921;42.266;23.122;2023-06-14T01:49:52;95129.34;;;18.48;94.04
7754;BME280;3921;42.266;23.122;2023-06-14T01:52:24;95278.28;;;19.36;94.55
7754;BME280;3921;42.266;23.122;2023-06-14T01:54:52;94995.88;;;17.56;94.30
7754;BME280;3921;42.266;23.122;2023-06-14T01:57:23;95203.69;;;18.75;94.78
7754;BME280;3921;42.266;23.122;2023-06-14T01:59:53;95124.13;;;18.10;94.95
7754;BME280;3921;42.266;23.122;2023-06-14T02:02:24;95290.19;;;19.36;95.21
7754;BME280;3921;42.266;23.122;2023-06-14T02:04:53;95213.94;;;18.73;95.30
7754;BME280;3921;42.266;23.122;2023-06-14T02:07:23;95281.75;;;19.15;95.57
7754;BME280;3921;42.266;23.122;2023-06-14T02:09:49;95294.59;;;19.32;95.63
7754;BME280;3921;42.266;23.122;2023-06-14T02:12:23;94836.94;;;16.47;95.18
7754;BME280;3921;42.266;23.122;2023-06-14T02:14:52;95280.91;;;19.15;95.78
7754;BME280;3921;42.266;23.122;2023-06-14T02:17:21;95296.09;;;19.18;95.97
7754;BME280;3921;42.266;23.122;2023-06-14T02:19:48;95225.91;;;18.71;95.93
7754;BME280;3921;42.266;23.122;2023-06-14T02:22:16;95034.25;;;17.48;95.78
7754;BME280;3921;42.266;23.122;2023-06-14T02:24:43;95249.22;;;18.82;96.07
7754;BME280;3921;42.266;23.122;2023-06-14T02:27:12;95233.81;;;18.64;96.12
7754;BME280;3921;42.266;23.122;2023-06-14T02:29:41;95311.94;;;19.24;96.33
7754;BME280;3921;42.266;23.122;2023-06-14T02:32:14;95270.50;;;19.00;96.19
7754;BME280;3921;42.266;23.122;2023-06-14T02:34:45;94955.88;;;16.98;95.52
7754;BME280;3921;42.266;23.122;2023-06-14T02:37:16;95255.75;;;18.88;95.88
7754;BME280;3921;42.266;23.122;2023-06-14T02:39:43;95229.47;;;18.67;95.67
7754;BME280;3921;42.266;23.122;2023-06-14T02:42:11;95242.94;;;18.69;95.30
7754;BME280;3921;42.266;23.122;2023-06-14T02:44:37;95234.69;;;18.64;95.48
7754;BME280;3921;42.266;23.122;2023-06-14T02:47:07;95311.84;;;19.26;95.48
7754;BME280;3921;42.266;23.122;2023-06-14T02:49:34;95354.34;;;19.25;95.70
7754;BME280;3921;42.266;23.122;2023-06-14T02:52:01;95187.53;;;18.35;95.61
7754;BME280;3921;42.266;23.122;2023-06-14T02:54:28;95316.28;;;19.22;95.93
7754;BME280;3921;42.266;23.122;2023-06-14T02:56:54;95186.19;;;18.26;95.91
7754;BME280;3921;42.266;23.122;2023-06-14T02:59:21;95198.59;;;18.54;95.84
7754;BME280;3921;42.266;23.122;2023-06-14T03:01:50;95007.06;;;17.08;95.75
7754;BME280;3921;42.266;23.122;2023-06-14T03:04:18;95184.94;;;18.37;96.12
7754;BME280;3921;42.266;23.122;2023-06-14T03:06:45;95107.34;;;17.86;96.04
7754;BME280;3921;42.266;23.122;2023-06-14T03:09:15;94915.97;;;16.58;95.84
7754;BME280;3921;42.266;23.122;2023-06-14T03:11:42;95256.09;;;18.58;96.23
7754;BME280;3921;42.266;23.122;2023-06-14T03:14:09;95102.00;;;17.70;95.94
7754;BME280;3921;42.266;23.122;2023-06-14T03:16:36;95099.31;;;17.52;95.99
7754;BME280;3921;42.266;23.122;2023-06-14T03:19:03;95242.16;;;18.47;96.22
7754;BME280;3921;42.266;23.122;2023-06-14T03:21:32;95085.13;;;17.25;96.02
7754;BME280;3921;42.266;23.122;2023-06-14T03:24:00;95384.41;;;19.17;96.08
7754;BME280;3921;42.266;23.122;2023-06-14T03:26:27;95157.56;;;18.01;95.53
7754;BME280;3921;42.266;23.122;2023-06-14T03:28:56;95269.66;;;18.59;95.35
7754;BME280;3921;42.266;23.122;2023-06-14T03:31:23;95354.53;;;19.21;95.59
7754;BME280;3921;42.266;23.122;2023-06-14T03:33:51;95392.78;;;19.19;96.14
7754;BME280;3921;42.266;23.122;2023-06-14T03:36:21;95350.31;;;19.20;96.16
7754;BME280;3921;42.266;23.122;2023-06-14T03:38:51;95210.31;;;18.16;96.50
7754;BME280;3921;42.266;23.122;2023-06-14T03:41:18;95277.16;;;18.62;96.43
7754;BME280;3921;42.266;23.122;2023-06-14T03:43:45;94952.13;;;16.63;95.88
7754;BME280;3921;42.266;23.122;2023-06-14T03:46:12;95046.16;;;17.26;95.81
7754;BME280;3921;42.266;23.122;2023-06-14T03:48:39;95268.94;;;18.55;96.32
7754;BME280;3921;42.266;23.122;2023-06-14T03:51:05;94993.03;;;16.78;96.42
7754;BME280;3921;42.266;23.122;2023-06-14T03:53:32;95203.97;;;18.26;96.79
7754;BME280;3921;42.266;23.122;2023-06-14T03:56:10;95113.06;;;17.69;96.80
7754;BME280;3921;42.266;23.122;2023-06-14T03:58:37;95022.28;;;17.10;96.63
7754;BME280;3921;42.266;23.122;2023-06-14T04:01:04;94939.88;;;16.51;96.69
7754;BME280;3921;42.266;23.122;2023-06-14T04:03:32;95042.69;;;17.07;96.64
7754;BME280;3921;42.266;23.122;2023-06-14T04:05:59;95367.41;;;19.18;96.72
7754;BME280;3921;42.266;23.122;2023-06-14T04:08:26;95193.56;;;18.12;96.00
7754;BME280;3921;42.266;23.122;2023-06-14T04:10:53;95358.03;;;19.18;95.71
7754;BME280;3921;42.266;23.122;2023-06-14T04:13:21;95386.94;;;19.17;95.32
7754;BME280;3921;42.266;23.122;2023-06-14T04:15:48;95265.56;;;18.55;95.52
7754;BME280;3921;42.266;23.122;2023-06-14T04:18:15;95355.59;;;19.15;95.45
7754;BME280;3921;42.266;23.122;2023-06-14T04:20:44;95036.13;;;17.01;95.20
7754;BME280;3921;42.266;23.122;2023-06-14T04:23:12;95017.47;;;17.02;94.91
7754;BME280;3921;42.266;23.122;2023-06-14T04:25:39;94984.19;;;16.88;94.91
7754;BME280;3921;42.266;23.122;2023-06-14T04:28:11;94952.09;;;16.41;95.45
7754;BME280;3921;42.266;23.122;2023-06-14T04:30:39;95047.00;;;17.27;95.44
7754;BME280;3921;42.266;23.122;2023-06-14T04:33:06;95204.34;;;18.17;95.83
7754;BME280;3921;42.266;23.122;2023-06-14T04:35:33;95245.72;;;18.43;95.84
7754;BME280;3921;42.266;23.122;2023-06-14T04:38:02;95264.50;;;18.61;96.43
7754;BME280;3921;42.266;23.122;2023-06-14T04:40:34;95384.91;;;19.25;96.88
7754;BME280;3921;42.266;23.122;2023-06-14T04:43:01;95168.56;;;18.01;97.52
7754;BME280;3921;42.266;23.122;2023-06-14T04:45:31;95105.16;;;17.76;97.91
7754;BME280;3921;42.266;23.122;2023-06-14T04:48:00;95369.94;;;19.38;98.25
7754;BME280;3921;42.266;23.122;2023-06-14T04:50:26;95125.47;;;17.76;97.92
7754;BME280;3921;42.266;23.122;2023-06-14T04:52:55;95375.66;;;19.43;97.97
7754;BME280;3921;42.266;23.122;2023-06-14T04:55:22;95302.97;;;18.95;96.85
7754;BME280;3921;42.266;23.122;2023-06-14T04:57:50;95319.72;;;19.01;95.81
7754;BME280;3921;42.266;23.122;2023-06-14T05:00:19;95156.91;;;17.96;95.08
7754;BME280;3921;42.266;23.122;2023-06-14T05:02:46;95332.91;;;19.10;94.31
7754;BME280;3921;42.266;23.122;2023-06-14T05:05:16;95102.75;;;17.73;93.79
7754;BME280;3921;42.266;23.122;2023-06-14T05:07:42;95400.94;;;19.48;94.02
7754;BME280;3921;42.266;23.122;2023-06-14T05:10:10;95388.09;;;19.51;93.99
7754;BME280;3921;42.266;23.122;2023-06-14T05:12:43;95035.72;;;17.34;93.96
7754;BME280;3921;42.266;23.122;2023-06-14T05:15:11;95368.16;;;19.40;94.49
7754;BME280;3921;42.266;23.122;2023-06-14T05:17:40;95346.19;;;19.17;95.01
7754;BME280;3921;42.266;23.122;2023-06-14T05:20:08;95385.75;;;19.46;95.42
7754;BME280;3921;42.266;23.122;2023-06-14T05:22:38;95087.72;;;17.67;96.17
7754;BME280;3921;42.266;23.122;2023-06-14T05:25:06;94989.50;;;17.04;96.39
7754;BME280;3921;42.266;23.122;2023-06-14T05:27:33;95248.25;;;18.63;97.09
7754;BME280;3921;42.266;23.122;2023-06-14T05:30:02;95126.28;;;17.99;97.49
7754;BME280;3921;42.266;23.122;2023-06-14T05:32:29;95017.53;;;17.22;98.20
7754;BME280;3921;42.266;23.122;2023-06-14T05:34:56;95414.53;;;19.69;98.62
7754;BME280;3921;42.266;23.122;2023-06-14T05:37:23;95347.28;;;19.12;98.32
7754;BME280;3921;42.266;23.122;2023-06-14T05:39:51;95204.38;;;18.38;97.88
7754;BME280;3921;42.266;23.122;2023-06-14T05:42:18;95393.72;;;19.59;96.65
7754;BME280;3921;42.266;23.122;2023-06-14T05:44:45;95332.69;;;19.15;96.16
7754;BME280;3921;42.266;23.122;2023-06-14T05:47:12;95034.31;;;17.27;94.66
7754;BME280;3921;42.266;23.122;2023-06-14T05:49:39;95416.94;;;19.72;94.45
7754;BME280;3921;42.266;23.122;2023-06-14T05:52:09;95201.91;;;18.36;93.84
7754;BME280;3921;42.266;23.122;2023-06-14T05:54:38;95345.19;;;19.21;94.52
7754;BME280;3921;42.266;23.122;2023-06-14T05:57:07;95198.53;;;18.36;93.62
7754;BME280;3921;42.266;23.122;2023-06-14T05:59:34;95431.22;;;19.76;93.75
7754;BME280;3921;42.266;23.122;2023-06-14T06:02:01;95419.31;;;19.76;93.65
7754;BME280;3921;42.266;23.122;2023-06-14T06:04:30;95183.50;;;18.09;93.13
7754;BME280;3921;42.266;23.122;2023-06-14T06:06:57;95406.97;;;19.67;93.86
7754;BME280;3921;42.266;23.122;2023-06-14T06:09:24;95417.03;;;19.70;94.75
7754;BME280;3921;42.266;23.122;2023-06-14T06:11:51;95282.94;;;18.88;95.05
7754;BME280;3921;42.266;23.122;2023-06-14T06:14:20;95048.63;;;17.49;94.89
7754;BME280;3921;42.266;23.122;2023-06-14T06:16:47;95447.78;;;19.86;95.24
7754;BME280;3921;42.266;23.122;2023-06-14T06:19:13;95235.53;;;18.63;95.59
7754;BME280;3921;42.266;23.122;2023-06-14T06:21:40;95345.19;;;19.21;95.77
7754;BME280;3921;42.266;23.122;2023-06-14T06:24:07;95059.19;;;17.61;95.14
7754;BME280;3921;42.266;23.122;2023-06-14T06:26:34;95336.88;;;19.36;95.34
7754;BME280;3921;42.266;23.122;2023-06-14T06:29:01;95077.56;;;17.67;95.26
7754;BME280;3921;42.266;23.122;2023-06-14T06:31:30;95063.00;;;17.72;95.74
7754;BME280;3921;42.266;23.122;2023-06-14T06:33:57;95375.69;;;19.63;95.51
7754;BME280;3921;42.266;23.122;2023-06-14T06:36:24;95158.28;;;18.25;94.69
7754;BME280;3921;42.266;23.122;2023-06-14T06:38:51;95333.44;;;19.37;94.13
7754;BME280;3921;42.266;23.122;2023-06-14T06:41:18;95396.16;;;19.81;94.14
7754;BME280;3921;42.266;23.122;2023-06-14T06:43:45;95143.56;;;18.11;94.61
7754;BME280;3921;42.266;23.122;2023-06-14T06:46:12;95396.56;;;19.72;95.31
7754;BME280;3921;42.266;23.122;2023-06-14T06:48:40;95356.88;;;19.46;96.25
7754;BME280;3921;42.266;23.122;2023-06-14T06:51:07;95458.09;;;20.03;96.88
7754;BME280;3921;42.266;23.122;2023-06-14T06:53:34;95337.69;;;19.37;96.49
7754;BME280;3921;42.266;23.122;2023-06-14T06:56:01;95157.06;;;18.34;96.15
7754;BME280;3921;42.266;23.122;2023-06-14T06:58:28;95223.50;;;18.68;95.77
7754;BME280;3921;42.266;23.122;2023-06-14T07:00:55;95328.41;;;19.36;96.13
7754;BME280;3921;42.266;23.122;2023-06-14T07:03:22;95200.16;;;18.57;95.72
7754;BME280;3921;42.266;23.122;2023-06-14T07:05:50;95210.91;;;18.64;95.75
7754;BME280;3921;42.266;23.122;2023-06-14T07:08:17;95165.25;;;18.40;96.10
7754;BME280;3921;42.266;23.122;2023-06-14T07:10:44;95339.16;;;19.43;96.96
7754;BME280;3921;42.266;23.122;2023-06-14T07:13:11;95453.81;;;20.04;97.94
7754;BME280;3921;42.266;23.122;2023-06-14T07:15:37;95356.47;;;19.55;97.65
7754;BME280;3921;42.266;23.122;2023-06-14T07:18:04;95322.16;;;19.43;98.65
7754;BME280;3921;42.266;23.122;2023-06-14T07:20:33;95422.19;;;20.08;98.97
7754;BME280;3921;42.266;23.122;2023-06-14T07:23:01;94980.34;;;17.42;98.83
7754;BME280;3921;42.266;23.122;2023-06-14T07:25:28;95340.88;;;19.42;99.22
7754;BME280;3921;42.266;23.122;2023-06-14T07:28:04;95164.97;;;18.48;97.36
7754;BME280;3921;42.266;23.122;2023-06-14T07:30:45;95434.53;;;20.17;96.11
7754;BME280;3921;42.266;23.122;2023-06-14T07:33:12;95410.53;;;20.21;94.16
7754;BME280;3921;42.266;23.122;2023-06-14T07:35:38;95324.91;;;19.59;92.57
7754;BME280;3921;42.266;23.122;2023-06-14T07:38:07;95418.81;;;20.26;91.46
7754;BME280;3921;42.266;23.122;2023-06-14T07:40:34;95439.97;;;20.28;89.85
7754;BME280;3921;42.266;23.122;2023-06-14T07:43:01;95003.72;;;17.70;88.75
7754;BME280;3921;42.266;23.122;2023-06-14T07:45:28;95245.00;;;19.21;89.40
7754;BME280;3921;42.266;23.122;2023-06-14T07:47:55;95172.06;;;18.80;89.86
7754;BME280;3921;42.266;23.122;2023-06-14T07:50:22;95007.69;;;17.77;90.55
7754;BME280;3921;42.266;23.122;2023-06-14T07:52:49;95395.72;;;20.10;91.20
7754;BME280;3921;42.266;23.122;2023-06-14T07:55:18;95331.72;;;19.77;89.18
7754;BME280;3921;42.266;23.122;2023-06-14T07:57:45;95118.34;;;18.47;87.87
7754;BME280;3921;42.266;23.122;2023-06-14T08:00:13;95444.53;;;20.22;87.48
7754;BME280;3921;42.266;23.122;2023-06-14T08:02:41;95444.28;;;20.47;86.84
7754;BME280;3921;42.266;23.122;2023-06-14T08:05:09;95177.16;;;18.80;86.08
7754;BME280;3921;42.266;23.122;2023-06-14T08:07:38;95439.16;;;20.28;85.90
7754;BME280;3921;42.266;23.122;2023-06-14T08:10:06;95291.19;;;19.52;85.52
7754;BME280;3921;42.266;23.122;2023-06-14T08:12:35;95005.13;;;17.79;84.96
7754;BME280;3921;42.266;23.122;2023-06-14T08:15:04;95393.78;;;20.15;85.14
7754;BME280;3921;42.266;23.122;2023-06-14T08:17:31;95444.53;;;20.40;84.88
7754;BME280;3921;42.266;23.122;2023-06-14T08:19:57;95462.19;;;20.64;84.76
7754;BME280;3921;42.266;23.122;2023-06-14T08:22:24;95096.66;;;18.39;83.40
7754;BME280;3921;42.266;23.122;2023-06-14T08:24:53;95445.44;;;20.58;83.34
7754;BME280;3921;42.266;23.122;2023-06-14T08:27:20;95241.69;;;19.39;83.48
7754;BME280;3921;42.266;23.122;2023-06-14T08:29:49;95313.13;;;19.75;83.13
7754;BME280;3921;42.266;23.122;2023-06-14T08:32:16;95447.47;;;20.71;82.98
7754;BME280;3921;42.266;23.122;2023-06-14T08:34:43;95135.44;;;18.64;82.82
7754;BME280;3921;42.266;23.122;2023-06-14T08:37:10;95390.88;;;20.23;82.66
7754;BME280;3921;42.266;23.122;2023-06-14T08:39:37;95128.31;;;18.72;83.25
7754;BME280;3921;42.266;23.122;2023-06-14T08:42:05;95174.66;;;18.99;83.59
7754;BME280;3921;42.266;23.122;2023-06-14T08:44:33;95450.84;;;20.71;83.30
7754;BME280;3921;42.266;23.122;2023-06-14T08:47:02;95350.34;;;20.17;82.69
7754;BME280;3921;42.266;23.122;2023-06-14T08:49:31;95369.19;;;20.14;82.88
7754;BME280;3921;42.266;23.122;2023-06-14T08:51:59;95377.78;;;20.31;83.10
7754;BME280;3921;42.266;23.122;2023-06-14T08:54:28;95208.94;;;19.11;82.99
7754;BME280;3921;42.266;23.122;2023-06-14T08:56:55;95011.22;;;17.95;83.05
7754;BME280;3921;42.266;23.122;2023-06-14T08:59:24;95351.88;;;20.21;83.38
7754;BME280;3921;42.266;23.122;2023-06-14T09:01:52;95439.22;;;20.83;84.00
7754;BME280;3921;42.266;23.122;2023-06-14T09:04:21;95150.22;;;19.14;83.99
7754;BME280;3921;42.266;23.122;2023-06-14T09:06:49;94966.56;;;18.09;84.58
7754;BME280;3921;42.266;23.122;2023-06-14T09:09:19;95436.50;;;20.86;85.29
7754;BME280;3921;42.266;23.122;2023-06-14T09:11:46;95150.09;;;19.17;84.84
7754;BME280;3921;42.266;23.122;2023-06-14T09:14:13;95264.56;;;19.97;85.93
7754;BME280;3921;42.266;23.122;2023-06-14T09:16:40;95234.56;;;19.83;86.82
7754;BME280;3921;42.266;23.122;2023-06-14T09:19:07;95407.31;;;20.91;86.58
7754;BME280;3921;42.266;23.122;2023-06-14T09:21:35;95388.47;;;20.94;86.62
7754;BME280;3921;42.266;23.122;2023-06-14T09:24:03;95106.53;;;19.23;86.76
7754;BME280;3921;42.266;23.122;2023-06-14T09:26:32;95140.63;;;19.38;86.83
7754;BME280;3921;42.266;23.122;2023-06-14T09:29:00;95291.66;;;20.36;87.38
7754;BME280;3921;42.266;23.122;2023-06-14T09:31:26;95243.06;;;20.20;87.48
7754;BME280;3921;42.266;23.122;2023-06-14T09:33:57;95229.25;;;20.24;87.50
7754;BME280;3921;42.266;23.122;2023-06-14T09:36:26;95134.09;;;19.70;86.68
7754;BME280;3921;42.266;23.122;2023-06-14T09:38:55;95244.59;;;20.41;86.49
7754;BME280;3921;42.266;23.122;2023-06-14T09:41:30;95385.78;;;21.32;87.18
7754;BME280;3921;42.266;23.122;2023-06-14T09:43:59;95294.50;;;20.83;87.39
7754;BME280;3921;42.266;23.122;2023-06-14T09:46:28;95175.09;;;20.19;86.95
7754;BME280;3921;42.266;23.122;2023-06-14T09:48:55;95291.63;;;21.07;86.04
7754;BME280;3921;42.266;23.122;2023-06-14T09:51:22;95123.00;;;19.88;83.79
7754;BME280;3921;42.266;23.122;2023-06-14T09:53:50;95114.75;;;20.01;81.33
7754;BME280;3921;42.266;23.122;2023-06-14T09:56:25;95324.19;;;21.54;80.85
7754;BME280;3921;42.266;23.122;2023-06-14T09:58:56;95368.38;;;21.89;80.32
7754;BME280;3921;42.266;23.122;2023-06-14T10:01:24;95362.69;;;21.99;80.43
7754;BME280;3921;42.266;23.122;2023-06-14T10:03:55;95287.84;;;21.64;79.57
7754;BME280;3921;42.266;23.122;2023-06-14T10:06:23;95027.00;;;20.22;78.92
7754;BME280;3921;42.266;23.122;2023-06-14T10:09:12;95301.22;;;22.01;79.28
7754;BME280;3921;42.266;23.122;2023-06-14T10:11:41;95038.97;;;20.55;79.37
7754;BME280;3921;42.266;23.122;2023-06-14T10:14:11;95254.44;;;21.83;77.69
7754;BME280;3921;42.266;23.122;2023-06-14T10:16:42;95316.84;;;22.28;76.88
7754;BME280;3921;42.266;23.122;2023-06-14T10:19:18;95386.59;;;22.47;77.12
7754;BME280;3921;42.266;23.122;2023-06-14T10:21:51;95031.69;;;20.47;74.47
7754;BME280;3921;42.266;23.122;2023-06-14T10:24:27;95014.97;;;20.41;74.59
7754;BME280;3921;42.266;23.122;2023-06-14T10:26:58;95347.50;;;22.75;75.27
7754;BME280;3921;42.266;23.122;2023-06-14T10:29:25;95265.75;;;22.26;73.35
7754;BME280;3921;42.266;23.122;2023-06-14T10:31:58;95369.53;;;22.94;72.08
7754;BME280;3921;42.266;23.122;2023-06-14T10:34:26;95184.88;;;21.92;72.33
7754;BME280;3921;42.266;23.122;2023-06-14T10:37:01;95317.47;;;22.93;74.60
7754;BME280;3921;42.266;23.122;2023-06-14T10:39:29;94935.63;;;20.62;75.25
7754;BME280;3921;42.266;23.122;2023-06-14T10:42:01;95317.13;;;22.99;77.79
7754;BME280;3921;42.266;23.122;2023-06-14T10:44:37;94969.69;;;20.92;78.81
7754;BME280;3921;42.266;23.122;2023-06-14T10:47:07;95199.50;;;22.36;79.66
7754;BME280;3921;42.266;23.122;2023-06-14T10:49:42;95311.03;;;23.16;79.68
7754;BME280;3921;42.266;23.122;2023-06-14T10:52:11;95314.16;;;23.21;79.72
7754;BME280;3921;42.266;23.122;2023-06-14T10:55:04;95326.72;;;23.26;79.81
7754;BME280;3921;42.266;23.122;2023-06-14T10:57:37;95322.59;;;23.23;79.40
7754;BME280;3921;42.266;23.122;2023-06-14T11:00:05;94978.34;;;21.06;79.12
7754;BME280;3921;42.266;23.122;2023-06-14T11:02:51;94943.63;;;20.87;75.32
7754;BME280;3921;42.266;23.122;2023-06-14T11:05:24;95247.50;;;22.63;72.76
7754;BME280;3921;42.266;23.122;2023-06-14T11:08:33;95325.88;;;23.25;74.13
7754;BME280;3921;42.266;23.122;2023-06-14T11:11:06;95324.16;;;23.26;70.57
7754;BME280;3921;42.266;23.122;2023-06-14T11:13:37;95285.91;;;22.93;67.85
7754;BME280;3921;42.266;23.122;2023-06-14T11:16:10;95075.00;;;21.45;66.38
7754;BME280;3921;42.266;23.122;2023-06-14T11:18:37;95255.03;;;22.66;66.05
7754;BME280;3921;42.266;23.122;2023-06-14T11:21:04;95275.63;;;22.78;65.19
7754;BME280;3921;42.266;23.122;2023-06-14T11:23:31;95116.03;;;21.73;64.12
7754;BME280;3921;42.266;23.122;2023-06-14T11:25:58;95150.38;;;21.99;64.13
7754;BME280;3921;42.266;23.122;2023-06-14T11:28:37;95096.47;;;21.72;65.29
7754;BME280;3921;42.266;23.122;2023-06-14T11:31:04;95251.53;;;22.67;65.42
7754;BME280;3921;42.266;23.122;2023-06-14T11:33:31;94947.31;;;20.82;65.46
7754;BME280;3921;42.266;23.122;2023-06-14T11:35:58;94908.19;;;20.81;64.71
7754;BME280;3921;42.266;23.122;2023-06-14T11:38:25;95084.59;;;22.01;62.93
7754;BME280;3921;42.266;23.122;2023-06-14T11:40:52;95088.50;;;21.93;62.86
7754;BME280;3921;42.266;23.122;2023-06-14T11:43:19;95081.50;;;21.96;63.83
7754;BME280;3921;42.266;23.122;2023-06-14T11:45:49;95226.69;;;22.83;63.30
7754;BME280;3921;42.266;23.122;2023-06-14T11:48:16;95033.97;;;21.92;63.14
7754;BME280;3921;42.266;23.122;2023-06-14T11:50:43;94829.16;;;20.64;63.97
7754;BME280;3921;42.266;23.122;2023-06-14T11:53:10;95087.53;;;22.25;64.96
7754;BME280;3921;42.266;23.122;2023-06-14T11:55:39;95145.50;;;22.41;64.56
7754;BME280;3921;42.266;23.122;2023-06-14T11:58:06;94854.31;;;20.86;64.03
7754;BME280;3921;42.266;23.122;2023-06-14T12:00:35;94910.25;;;21.20;64.08
7754;BME280;3921;42.266;23.122;2023-06-14T12:03:04;95276.84;;;23.74;63.28
7754;BME280;3921;42.266;23.122;2023-06-14T12:05:33;95250.28;;;23.47;63.08
7754;BME280;3921;42.266;23.122;2023-06-14T12:08:01;95102.06;;;22.53;62.82
7754;BME280;3921;42.266;23.122;2023-06-14T12:10:29;95189.66;;;23.31;64.03
7754;BME280;3921;42.266;23.122;2023-06-14T12:12:57;95265.56;;;23.77;63.53
7754;BME280;3921;42.266;23.122;2023-06-14T12:15:24;95039.91;;;22.51;63.64
7754;BME280;3921;42.266;23.122;2023-06-14T12:17:54;95286.84;;;24.06;63.08
7754;BME280;3921;42.266;23.122;2023-06-14T12:20:23;94940.56;;;22.15;62.08
7754;BME280;3921;42.266;23.122;2023-06-14T12:22:56;94868.66;;;21.91;61.67
7754;BME280;3921;42.266;23.122;2023-06-14T12:25:24;95123.00;;;23.46;61.71
7754;BME280;3921;42.266;23.122;2023-06-14T12:27:53;94991.00;;;22.56;64.19
7754;BME280;3921;42.266;23.122;2023-06-14T12:30:20;95140.94;;;23.46;65.47
7754;BME280;3921;42.266;23.122;2023-06-14T12:32:47;95152.56;;;23.51;64.93
7754;BME280;3921;42.266;23.122;2023-06-14T12:35:17;95010.66;;;22.56;63.54
7754;BME280;3921;42.266;23.122;2023-06-14T12:37:45;95064.88;;;22.91;64.37
7754;BME280;3921;42.266;23.122;2023-06-14T12:40:12;95100.97;;;23.15;64.58
7754;BME280;3921;42.266;23.122;2023-06-14T12:42:40;95263.22;;;24.28;65.78
7754;BME280;3921;42.266;23.122;2023-06-14T12:45:07;95264.44;;;24.22;66.94
7754;BME280;3921;42.266;23.122;2023-06-14T12:47:34;95124.91;;;23.42;67.19
7754;BME280;3921;42.266;23.122;2023-06-14T12:50:01;95194.97;;;23.98;68.74
7754;BME280;3921;42.266;23.122;2023-06-14T12:52:28;95247.25;;;24.37;68.67
7754;BME280;3921;42.266;23.122;2023-06-14T12:54:57;95161.09;;;23.79;68.35
7754;BME280;3921;42.266;23.122;2023-06-14T12:57:24;94878.25;;;22.16;66.93
7754;BME280;3921;42.266;23.122;2023-06-14T12:59:50;94953.47;;;22.69;65.97
7754;BME280;3921;42.266;23.122;2023-06-14T13:02:19;95094.09;;;23.56;65.53
7754;BME280;3921;42.266;23.122;2023-06-14T13:04:47;94865.50;;;22.29;64.68
7754;BME280;3921;42.266;23.122;2023-06-14T13:07:14;95207.75;;;24.40;64.76
7754;BME280;3921;42.266;23.122;2023-06-14T13:09:41;95139.16;;;24.15;64.57
7754;BME280;3921;42.266;23.122;2023-06-14T13:12:10;95261.34;;;24.84;64.68
7754;BME280;3921;42.266;23.122;2023-06-14T13:14:38;95256.22;;;24.84;63.37
7754;BME280;3921;42.266;23.122;2023-06-14T13:17:06;94911.53;;;22.58;61.44
7754;BME280;3921;42.266;23.122;2023-06-14T13:19:33;95148.78;;;23.98;60.34